createdAt,value
2023-01-01T00:00:29.103Z,58.17
2023-01-01T00:01:30.677Z,58.58
2023-01-01T00:02:36.751Z,58.79
2023-01-01T00:03:38.754Z,58.90
2023-01-01T00:04:40.271Z,59.00
2023-01-01T00:05:41.757Z,59.13
2023-01-01T00:06:43.666Z,58.59
2023-01-01T00:07:45.144Z,59.00
2023-01-01T00:08:46.659Z,58.83
2023-01-01T00:10:06.859Z,58.35
2023-01-01T00:11:08.658Z,59.06
2023-01-01T00:12:10.167Z,58.78
2023-01-01T00:13:12.755Z,59.31
2023-01-01T00:14:14.237Z,59.04
2023-01-01T00:15:15.701Z,58.67
2023-01-01T00:16:17.205Z,59.30
2023-01-01T00:17:18.747Z,59.35
2023-01-01T00:18:20.255Z,59.50
2023-01-01T00:19:21.858Z,60.24
2023-01-01T00:20:23.616Z,60.12
2023-01-01T00:21:25.091Z,59.64
2023-01-01T00:23:48.313Z,59.27
2023-01-01T00:24:49.788Z,59.60
2023-01-01T00:25:51.309Z,60.03
2023-01-01T00:26:52.772Z,60.18
2023-01-01T00:27:54.382Z,60.52
2023-01-01T00:28:55.910Z,60.65
2023-01-01T00:29:57.413Z,60.80
2023-01-01T00:30:58.955Z,60.79
2023-01-01T00:32:00.569Z,60.82
2023-01-01T00:33:02.140Z,60.62
2023-01-01T00:34:03.698Z,60.94
2023-01-01T00:35:05.395Z,60.80
2023-01-01T00:36:10.277Z,61.14
2023-01-01T00:37:11.823Z,61.06
2023-01-01T00:38:13.410Z,61.29
2023-01-01T00:39:14.965Z,61.13
2023-01-01T00:40:16.492Z,61.25
2023-01-01T00:41:18.020Z,61.59
2023-01-01T00:42:19.597Z,61.35
2023-01-01T00:43:21.112Z,61.21
2023-01-01T00:44:22.657Z,61.19
2023-01-01T00:45:24.242Z,60.94
2023-01-01T00:46:25.775Z,61.22
2023-01-01T00:47:27.371Z,61.19
2023-01-01T00:48:28.932Z,60.94
2023-01-01T00:49:30.390Z,60.88
2023-01-01T00:50:31.913Z,60.41
2023-01-01T00:51:37.150Z,60.36
2023-01-01T00:52:38.887Z,60.44
2023-01-01T00:53:40.448Z,60.07
2023-01-01T00:54:42.019Z,59.99
2023-01-01T00:55:44.175Z,59.89
2023-01-01T00:56:46.583Z,59.73
2023-01-01T00:57:48.087Z,59.87
2023-01-01T00:59:01.004Z,59.88
2023-01-01T01:00:04.508Z,59.65
2023-01-01T01:01:06.142Z,59.59
2023-01-01T01:02:07.969Z,59.47
2023-01-01T01:03:27.892Z,59.33
2023-01-01T01:04:29.431Z,59.37
2023-01-01T01:05:32.121Z,59.39
2023-01-01T01:06:33.604Z,59.30
2023-01-01T01:07:38.138Z,59.09
2023-01-01T01:08:40.505Z,59.40
2023-01-01T01:09:41.974Z,59.20
2023-01-01T01:10:43.486Z,59.12
2023-01-01T01:11:44.974Z,59.40
2023-01-01T01:12:46.429Z,59.28
2023-01-01T01:13:48.533Z,59.46
2023-01-01T01:14:50.028Z,59.62
2023-01-01T01:15:56.282Z,59.86
2023-01-01T01:16:58.081Z,59.68
2023-01-01T01:17:59.606Z,59.65
2023-01-01T01:19:01.928Z,59.69
2023-01-01T01:20:03.780Z,59.80
2023-01-01T01:21:05.798Z,59.99
2023-01-01T01:22:07.253Z,59.80
2023-01-01T01:23:08.791Z,60.07
2023-01-01T01:24:10.627Z,60.13
2023-01-01T01:25:12.121Z,60.76
2023-01-01T01:26:14.697Z,60.76
2023-01-01T01:27:16.172Z,61.26
2023-01-01T01:28:17.690Z,61.15
2023-01-01T01:29:19.285Z,61.18
2023-01-01T01:30:20.786Z,61.53
2023-01-01T01:31:22.879Z,62.07
2023-01-01T01:32:24.421Z,62.23
2023-01-01T01:33:25.917Z,61.91
2023-01-01T01:34:28.498Z,62.55
2023-01-01T01:35:30.128Z,62.64
2023-01-01T01:36:31.728Z,62.86
2023-01-01T01:37:33.189Z,63.08
2023-01-01T01:38:34.703Z,63.11
2023-01-01T01:39:36.289Z,63.20
2023-01-01T01:40:38.943Z,63.56
2023-01-01T01:41:40.422Z,63.47
2023-01-01T01:42:44.851Z,63.27
2023-01-01T01:43:58.246Z,62.96
2023-01-01T01:45:00.552Z,62.80
2023-01-01T01:46:05.736Z,62.36
2023-01-01T01:47:07.863Z,63.35
2023-01-01T01:48:09.594Z,63.27
2023-01-01T01:49:15.113Z,63.53
2023-01-01T01:50:19.599Z,63.87
2023-01-01T01:51:23.232Z,64.17
2023-01-01T01:52:25.165Z,64.53
2023-01-01T01:53:27.473Z,64.31
2023-01-01T01:54:29.061Z,64.38
2023-01-01T01:55:31.253Z,64.49
2023-01-01T01:56:44.505Z,64.03
2023-01-01T01:57:46.024Z,64.25
2023-01-01T01:58:47.488Z,63.86
2023-01-01T01:59:49.369Z,64.16
2023-01-01T02:00:50.976Z,64.46
2023-01-01T02:01:52.666Z,64.26
2023-01-01T02:02:54.176Z,64.70
2023-01-01T02:03:59.623Z,64.90
2023-01-01T02:05:01.360Z,65.13
2023-01-01T02:06:03.029Z,64.98
2023-01-01T02:07:04.665Z,65.33
2023-01-01T02:08:06.275Z,65.56
2023-01-01T02:09:07.966Z,65.51
2023-01-01T02:10:09.513Z,65.50
2023-01-01T02:11:11.028Z,65.27
2023-01-01T02:12:13.489Z,65.24
2023-01-01T02:13:15.015Z,65.38
2023-01-01T02:14:16.516Z,65.58
2023-01-01T02:15:18.037Z,65.38
2023-01-01T02:16:20.946Z,65.24
2023-01-01T02:17:23.523Z,65.17
2023-01-01T02:18:26.062Z,65.53
2023-01-01T02:19:33.623Z,65.75
2023-01-01T02:21:01.719Z,65.43
2023-01-01T02:22:21.622Z,65.98
2023-01-01T02:23:23.141Z,65.92
2023-01-01T02:24:33.740Z,65.60
2023-01-01T02:25:35.219Z,65.60
2023-01-01T02:26:55.075Z,65.28
2023-01-01T02:27:56.503Z,65.59
2023-01-01T02:28:57.990Z,65.45
2023-01-01T02:30:05.241Z,65.72
2023-01-01T02:31:06.814Z,65.54
2023-01-01T02:32:10.220Z,65.69
2023-01-01T02:33:14.131Z,65.99
2023-01-01T02:34:15.804Z,65.93
2023-01-01T02:35:36.538Z,65.69
2023-01-01T02:36:38.865Z,65.95
2023-01-01T02:37:40.328Z,65.76
2023-01-01T02:38:45.177Z,65.64
2023-01-01T02:39:48.865Z,65.18
2023-01-01T02:40:51.007Z,65.57
2023-01-01T02:41:53.061Z,65.76
2023-01-01T02:42:54.577Z,65.99
2023-01-01T02:44:56.759Z,66.05
2023-01-01T02:45:58.384Z,65.84
2023-01-01T02:47:06.284Z,65.54
2023-01-01T02:48:27.804Z,65.60
2023-01-01T02:49:29.316Z,65.47
2023-01-01T02:50:30.809Z,65.65
2023-01-01T02:51:35.950Z,65.80
2023-01-01T02:52:52.665Z,65.96
2023-01-01T02:54:12.751Z,65.73
2023-01-01T02:55:17.139Z,65.88
2023-01-01T02:56:30.931Z,66.07
2023-01-01T02:57:35.718Z,66.36
2023-01-01T02:59:11.068Z,66.77
2023-01-01T03:00:19.624Z,66.88
2023-01-01T03:01:27.769Z,66.62
2023-01-01T03:02:50.493Z,66.37
2023-01-01T03:04:04.663Z,66.59
2023-01-01T03:05:11.228Z,66.30
2023-01-01T03:06:23.158Z,66.32
2023-01-01T03:07:43.385Z,66.40
2023-01-01T03:08:44.969Z,66.49
2023-01-01T03:09:49.014Z,66.41
2023-01-01T03:10:56.784Z,66.53
2023-01-01T03:12:11.543Z,66.87
2023-01-01T03:13:32.423Z,67.24
2023-01-01T03:14:49.165Z,67.08
2023-01-01T03:15:55.137Z,66.89
2023-01-01T03:17:16.878Z,66.78
2023-01-01T03:18:19.431Z,67.14
2023-01-01T03:19:24.613Z,67.34
2023-01-01T03:20:27.251Z,67.33
2023-01-01T03:21:28.735Z,67.18
2023-01-01T03:22:31.617Z,66.86
2023-01-01T03:23:37.424Z,66.44
2023-01-01T03:24:40.520Z,66.49
2023-01-01T03:25:45.979Z,66.29
2023-01-01T03:26:48.287Z,66.08
2023-01-01T03:27:53.515Z,65.80
2023-01-01T03:28:56.236Z,65.54
2023-01-01T03:29:58.500Z,65.67
2023-01-01T03:31:00.505Z,65.71
2023-01-01T03:32:02.513Z,65.63
2023-01-01T03:33:05.421Z,65.37
2023-01-01T03:34:07.919Z,65.02
2023-01-01T03:35:09.516Z,65.44
2023-01-01T03:36:12.002Z,65.11
2023-01-01T03:37:15.764Z,65.38
2023-01-01T03:38:17.266Z,65.52
2023-01-01T03:39:26.399Z,65.30
2023-01-01T03:40:27.945Z,65.41
2023-01-01T03:41:47.037Z,65.55
2023-01-01T03:42:52.539Z,65.27
2023-01-01T03:43:54.680Z,65.10
2023-01-01T03:44:58.584Z,65.01
2023-01-01T03:46:00.126Z,64.95
2023-01-01T03:47:01.853Z,64.89
2023-01-01T03:48:05.283Z,65.13
2023-01-01T03:49:07.445Z,65.15
2023-01-01T03:50:09.230Z,64.86
2023-01-01T03:51:15.759Z,64.92
2023-01-01T03:52:36.551Z,65.07
2023-01-01T03:53:41.761Z,65.15
2023-01-01T03:54:56.859Z,65.48
2023-01-01T03:56:06.406Z,65.35
2023-01-01T03:57:26.798Z,65.31
2023-01-01T03:58:32.258Z,65.10
2023-01-01T03:59:35.333Z,65.04
2023-01-01T04:01:05.791Z,65.19
2023-01-01T04:02:07.485Z,64.98
2023-01-01T04:03:14.502Z,64.97
2023-01-01T04:04:16.124Z,64.80
2023-01-01T04:05:18.750Z,64.68
2023-01-01T04:06:20.297Z,65.02
2023-01-01T04:07:22.029Z,65.10
2023-01-01T04:08:23.512Z,65.21
2023-01-01T04:09:25.946Z,65.43
2023-01-01T04:10:27.606Z,65.26
2023-01-01T04:11:49.378Z,65.46
2023-01-01T04:12:51.411Z,65.13
2023-01-01T04:13:52.865Z,65.27
2023-01-01T04:14:54.341Z,65.50
2023-01-01T04:15:55.965Z,65.38
2023-01-01T04:16:57.821Z,65.61
2023-01-01T04:17:59.561Z,65.42
2023-01-01T04:19:01.507Z,65.44
2023-01-01T04:20:03.198Z,65.36
2023-01-01T04:21:04.744Z,65.34
2023-01-01T04:22:06.370Z,65.46
2023-01-01T04:23:07.848Z,65.83
2023-01-01T04:24:10.172Z,65.97
2023-01-01T04:25:11.723Z,66.08
2023-01-01T04:26:15.791Z,66.09
2023-01-01T04:27:17.293Z,65.84
2023-01-01T04:28:19.579Z,66.17
2023-01-01T04:29:21.087Z,66.11
2023-01-01T04:30:22.559Z,65.93
2023-01-01T04:31:24.103Z,65.64
2023-01-01T04:32:25.623Z,65.60
2023-01-01T04:33:27.153Z,65.57
2023-01-01T04:34:28.733Z,65.63
2023-01-01T04:35:30.230Z,65.37
2023-01-01T04:36:31.799Z,65.36
2023-01-01T04:37:35.181Z,65.39
2023-01-01T04:38:36.905Z,65.44
2023-01-01T04:39:38.445Z,65.45
2023-01-01T04:40:39.923Z,65.55
2023-01-01T04:41:41.459Z,65.45
2023-01-01T04:42:43.525Z,65.65
2023-01-01T04:43:50.574Z,65.93
2023-01-01T04:44:52.073Z,65.87
2023-01-01T04:46:00.071Z,65.77
2023-01-01T04:47:01.560Z,65.68
2023-01-01T04:48:06.059Z,65.75
2023-01-01T04:49:07.576Z,66.18
2023-01-01T04:50:09.242Z,66.45
2023-01-01T04:51:11.384Z,66.21
2023-01-01T04:52:12.875Z,66.20
2023-01-01T04:53:14.552Z,66.31
2023-01-01T04:54:16.083Z,66.30
2023-01-01T04:55:17.553Z,66.62
2023-01-01T04:56:20.759Z,66.52
2023-01-01T04:57:22.271Z,66.61
2023-01-01T04:58:24.040Z,66.25
2023-01-01T04:59:25.669Z,66.77
2023-01-01T05:00:27.185Z,66.51
2023-01-01T05:01:29.099Z,66.47
2023-01-01T05:02:30.740Z,66.41
2023-01-01T05:03:32.360Z,66.05
2023-01-01T05:04:33.869Z,65.99
2023-01-01T05:05:35.359Z,65.83
2023-01-01T05:06:37.521Z,65.84
2023-01-01T05:07:39.091Z,65.72
2023-01-01T05:08:41.159Z,65.37
2023-01-01T05:09:42.634Z,65.31
2023-01-01T05:10:44.112Z,65.38
2023-01-01T05:11:45.695Z,65.63
2023-01-01T05:12:47.166Z,65.64
2023-01-01T05:13:49.129Z,66.04
2023-01-01T05:14:50.676Z,66.16
2023-01-01T05:15:52.167Z,65.92
2023-01-01T05:16:53.816Z,65.68
2023-01-01T05:17:55.375Z,65.21
2023-01-01T05:18:56.956Z,65.26
2023-01-01T05:19:59.648Z,65.18
2023-01-01T05:21:01.632Z,65.09
2023-01-01T05:22:10.202Z,65.06
2023-01-01T05:23:12.303Z,65.13
2023-01-01T05:24:13.825Z,65.13
2023-01-01T05:25:15.572Z,65.19
2023-01-01T05:26:17.026Z,64.83
2023-01-01T05:27:18.612Z,65.07
2023-01-01T05:28:20.185Z,65.02
2023-01-01T05:29:24.216Z,64.84
2023-01-01T05:30:25.736Z,64.99
2023-01-01T05:31:28.293Z,64.92
2023-01-01T05:32:29.889Z,64.75
2023-01-01T05:33:31.371Z,64.59
2023-01-01T05:35:33.272Z,65.02
2023-01-01T05:36:38.338Z,65.16
2023-01-01T05:37:40.121Z,65.25
2023-01-01T05:38:41.726Z,65.21
2023-01-01T05:39:43.301Z,65.29
2023-01-01T05:40:44.779Z,65.42
2023-01-01T05:41:46.296Z,65.66
2023-01-01T05:42:47.822Z,65.62
2023-01-01T05:43:49.445Z,65.55
2023-01-01T05:44:50.947Z,65.54
2023-01-01T05:46:05.123Z,65.31
2023-01-01T05:47:06.737Z,65.33
2023-01-01T05:48:08.324Z,65.23
2023-01-01T05:49:12.867Z,65.03
2023-01-01T05:50:14.476Z,64.85
2023-01-01T05:51:17.038Z,64.61
2023-01-01T05:52:23.040Z,64.59
2023-01-01T05:53:28.472Z,64.48
2023-01-01T05:54:29.945Z,64.38
2023-01-01T05:55:31.593Z,64.58
2023-01-01T05:56:33.110Z,64.85
2023-01-01T05:57:35.996Z,64.55
2023-01-01T05:58:39.423Z,64.61
2023-01-01T05:59:40.928Z,64.66
2023-01-01T06:00:42.450Z,64.56
2023-01-01T06:01:46.180Z,64.53
2023-01-01T06:02:49.963Z,64.49
2023-01-01T06:03:51.788Z,64.40
2023-01-01T06:04:53.347Z,64.33
2023-01-01T06:05:54.841Z,64.39
2023-01-01T06:06:56.417Z,64.39
2023-01-01T06:07:57.925Z,64.26
2023-01-01T06:09:00.457Z,64.41
2023-01-01T06:10:02.029Z,64.33
2023-01-01T06:11:04.164Z,64.09
2023-01-01T06:12:05.924Z,64.05
2023-01-01T06:13:12.935Z,63.65
2023-01-01T06:14:14.927Z,63.89
2023-01-01T06:15:16.484Z,63.87
2023-01-01T06:16:18.001Z,63.75
2023-01-01T06:17:19.651Z,63.51
2023-01-01T06:18:21.184Z,63.45
2023-01-01T06:19:22.666Z,63.21
2023-01-01T06:20:24.400Z,63.18
2023-01-01T06:21:26.171Z,63.37
2023-01-01T06:22:27.784Z,63.07
2023-01-01T06:23:29.268Z,63.03
2023-01-01T06:24:36.993Z,63.00
2023-01-01T06:25:41.124Z,63.21
2023-01-01T06:26:42.604Z,62.99
2023-01-01T06:27:44.116Z,62.85
2023-01-01T06:28:45.709Z,62.70
2023-01-01T06:29:47.216Z,62.77
2023-01-01T06:30:48.771Z,62.90
2023-01-01T06:31:50.268Z,62.38
2023-01-01T06:32:53.015Z,62.49
2023-01-01T06:33:54.572Z,62.56
2023-01-01T06:34:56.081Z,62.53
2023-01-01T06:35:57.637Z,62.43
2023-01-01T06:37:04.759Z,62.39
2023-01-01T06:38:08.409Z,62.42
2023-01-01T06:39:09.955Z,62.26
2023-01-01T06:40:11.499Z,62.16
2023-01-01T06:41:13.853Z,62.25
2023-01-01T06:42:15.312Z,62.16
2023-01-01T06:43:16.790Z,62.11
2023-01-01T06:44:18.943Z,62.10
2023-01-01T06:45:20.494Z,62.22
2023-01-01T06:46:24.337Z,62.24
2023-01-01T06:47:25.972Z,62.39
2023-01-01T06:48:30.557Z,62.48
2023-01-01T06:49:32.020Z,62.45
2023-01-01T06:50:33.521Z,62.35
2023-01-01T06:51:42.871Z,62.02
2023-01-01T06:52:44.413Z,62.11
2023-01-01T06:53:46.189Z,61.75
2023-01-01T06:54:47.656Z,61.62
2023-01-01T06:55:55.005Z,62.03
2023-01-01T06:56:58.515Z,61.88
2023-01-01T06:58:00.006Z,61.68
2023-01-01T06:59:01.553Z,61.59
2023-01-01T07:00:03.089Z,61.74
2023-01-01T07:01:08.301Z,61.89
2023-01-01T07:02:10.777Z,61.67
2023-01-01T07:03:12.565Z,61.64
2023-01-01T07:04:14.809Z,61.62
2023-01-01T07:05:16.346Z,61.83
2023-01-01T07:06:17.834Z,61.62
2023-01-01T07:07:19.371Z,61.83
2023-01-01T07:08:20.832Z,61.70
2023-01-01T07:09:22.512Z,61.72
2023-01-01T07:10:23.973Z,61.62
2023-01-01T07:11:25.605Z,61.91
2023-01-01T07:12:27.105Z,61.79
2023-01-01T07:13:29.387Z,61.82
2023-01-01T07:14:30.951Z,61.72
2023-01-01T07:15:32.515Z,61.74
2023-01-01T07:16:34.175Z,61.61
2023-01-01T07:17:35.703Z,61.55
2023-01-01T07:18:38.587Z,61.76
2023-01-01T07:19:40.132Z,61.60
2023-01-01T07:20:41.632Z,61.53
2023-01-01T07:21:43.715Z,61.41
2023-01-01T07:22:45.228Z,61.35
2023-01-01T07:23:46.681Z,61.18
2023-01-01T07:24:48.165Z,61.13
2023-01-01T07:25:50.048Z,61.11
2023-01-01T07:26:51.602Z,60.95
2023-01-01T07:27:53.160Z,60.89
2023-01-01T07:28:55.228Z,60.97
2023-01-01T07:29:58.837Z,61.01
2023-01-01T07:31:00.446Z,61.08
2023-01-01T07:32:02.275Z,60.98
2023-01-01T07:33:03.772Z,61.08
2023-01-01T07:34:05.650Z,60.69
2023-01-01T07:35:07.401Z,60.64
2023-01-01T07:36:08.958Z,60.65
2023-01-01T07:37:10.472Z,60.51
2023-01-01T07:38:12.165Z,60.71
2023-01-01T07:39:13.642Z,60.61
2023-01-01T07:40:15.235Z,60.69
2023-01-01T07:41:16.743Z,60.72
2023-01-01T07:42:18.273Z,60.69
2023-01-01T07:43:19.769Z,60.63
2023-01-01T07:44:21.303Z,60.56
2023-01-01T07:45:22.833Z,60.54
2023-01-01T07:46:24.405Z,60.46
2023-01-01T07:47:26.055Z,60.30
2023-01-01T07:48:27.680Z,60.38
2023-01-01T07:49:29.194Z,60.11
2023-01-01T07:50:31.467Z,60.35
2023-01-01T07:51:33.013Z,60.38
2023-01-01T07:52:34.516Z,60.01
2023-01-01T07:53:36.086Z,60.19
2023-01-01T07:54:37.587Z,60.29
2023-01-01T07:55:39.043Z,60.15
2023-01-01T07:56:40.531Z,60.23
2023-01-01T07:57:42.385Z,60.12
2023-01-01T07:58:43.870Z,60.02
2023-01-01T07:59:45.426Z,59.97
2023-01-01T08:00:48.182Z,59.83
2023-01-01T08:01:49.792Z,59.90
2023-01-01T08:02:51.515Z,60.08
2023-01-01T08:03:53.168Z,59.91
2023-01-01T08:04:54.687Z,59.97
2023-01-01T08:05:56.206Z,60.14
2023-01-01T08:06:57.756Z,59.76
2023-01-01T08:07:59.264Z,59.91
2023-01-01T08:09:00.827Z,59.86
2023-01-01T08:10:03.989Z,59.84
2023-01-01T08:11:05.952Z,59.55
2023-01-01T08:12:07.551Z,59.31
2023-01-01T08:13:09.093Z,59.49
2023-01-01T08:14:10.689Z,59.06
2023-01-01T08:15:12.369Z,59.30
2023-01-01T08:16:13.914Z,59.10
2023-01-01T08:17:15.525Z,59.17
2023-01-01T08:18:17.034Z,58.71
2023-01-01T08:19:18.503Z,58.45
2023-01-01T08:20:20.061Z,58.43
2023-01-01T08:21:21.579Z,59.32
2023-01-01T08:22:23.043Z,58.59
2023-01-01T08:23:24.652Z,58.76
2023-01-01T08:24:26.195Z,58.36
2023-01-01T08:25:27.778Z,58.43
2023-01-01T08:26:32.500Z,58.22
2023-01-01T08:27:34.009Z,58.47
2023-01-01T08:28:35.588Z,58.08
2023-01-01T08:29:37.091Z,57.91
2023-01-01T08:30:38.568Z,58.18
2023-01-01T08:31:41.215Z,58.24
2023-01-01T08:32:42.740Z,58.02
2023-01-01T08:33:44.234Z,57.64
2023-01-01T08:34:45.744Z,57.66
2023-01-01T08:35:53.711Z,57.26
2023-01-01T08:36:55.925Z,57.19
2023-01-01T08:37:57.486Z,57.56
2023-01-01T08:38:59.059Z,57.41
2023-01-01T08:40:00.548Z,57.08
2023-01-01T08:41:02.104Z,57.20
2023-01-01T08:42:08.532Z,57.12
2023-01-01T08:43:13.452Z,56.91
2023-01-01T08:44:14.924Z,57.16
2023-01-01T08:45:16.471Z,57.15
2023-01-01T08:46:17.991Z,56.94
2023-01-01T08:47:20.100Z,56.95
2023-01-01T08:48:27.047Z,56.83
2023-01-01T08:49:32.699Z,57.06
2023-01-01T08:50:34.274Z,56.93
2023-01-01T08:51:35.717Z,57.09
2023-01-01T08:52:37.217Z,56.96
2023-01-01T08:53:38.880Z,57.02
2023-01-01T08:54:40.434Z,56.96
2023-01-01T08:55:41.991Z,56.89
2023-01-01T08:56:43.466Z,56.92
2023-01-01T08:57:44.975Z,56.85
2023-01-01T08:58:46.494Z,56.86
2023-01-01T08:59:47.946Z,56.96
2023-01-01T09:00:49.435Z,56.62
2023-01-01T09:01:51.025Z,56.68
2023-01-01T09:02:52.723Z,56.78
2023-01-01T09:03:54.330Z,57.11
2023-01-01T09:04:55.812Z,56.85
2023-01-01T09:05:57.410Z,56.52
2023-01-01T09:06:58.912Z,56.78
2023-01-01T09:08:00.369Z,56.45
2023-01-01T09:09:01.919Z,56.39
2023-01-01T09:10:03.492Z,56.62
2023-01-01T09:11:04.995Z,56.77
2023-01-01T09:12:08.319Z,56.55
2023-01-01T09:13:10.186Z,56.41
2023-01-01T09:14:11.644Z,56.61
2023-01-01T09:15:16.235Z,56.29
2023-01-01T09:16:17.921Z,56.51
2023-01-01T09:17:19.449Z,56.63
2023-01-01T09:18:20.932Z,56.62
2023-01-01T09:19:22.425Z,56.44
2023-01-01T09:20:23.909Z,56.29
2023-01-01T09:21:25.404Z,56.16
2023-01-01T09:22:26.896Z,55.75
2023-01-01T09:23:28.431Z,56.28
2023-01-01T09:24:29.916Z,55.82
2023-01-01T09:25:31.550Z,55.55
2023-01-01T09:26:33.077Z,55.24
2023-01-01T09:27:34.523Z,55.01
2023-01-01T09:28:36.322Z,55.30
2023-01-01T09:29:37.877Z,55.11
2023-01-01T09:30:39.324Z,55.08
2023-01-01T09:31:40.952Z,54.34
2023-01-01T09:32:42.529Z,54.52
2023-01-01T09:33:44.027Z,54.38
2023-01-01T09:34:51.972Z,54.39
2023-01-01T09:35:53.909Z,54.26
2023-01-01T09:36:55.357Z,54.25
2023-01-01T09:37:56.929Z,53.84
2023-01-01T09:38:58.828Z,54.38
2023-01-01T09:40:00.368Z,53.85
2023-01-01T09:41:09.153Z,53.64
2023-01-01T09:42:16.933Z,53.80
2023-01-01T09:43:24.066Z,53.92
2023-01-01T09:44:44.175Z,53.30
2023-01-01T09:46:06.509Z,53.33
2023-01-01T09:47:13.758Z,53.26
2023-01-01T09:48:15.223Z,52.98
2023-01-01T09:49:18.854Z,52.45
2023-01-01T09:50:21.392Z,52.45
2023-01-01T09:51:22.938Z,52.64
2023-01-01T09:52:24.431Z,52.99
2023-01-01T09:53:28.703Z,52.67
2023-01-01T09:54:40.964Z,52.73
2023-01-01T09:55:58.182Z,52.33
2023-01-01T09:57:00.103Z,52.45
2023-01-01T09:58:01.627Z,51.90
2023-01-01T09:59:03.224Z,51.82
2023-01-01T10:00:06.678Z,52.32
2023-01-01T10:01:34.531Z,51.87
2023-01-01T10:02:59.396Z,51.83
2023-01-01T10:04:19.401Z,51.35
2023-01-01T10:05:32.314Z,51.45
2023-01-01T10:06:34.131Z,51.23
2023-01-01T10:07:38.313Z,51.12
2023-01-01T10:08:53.527Z,50.91
2023-01-01T10:09:57.534Z,50.50
2023-01-01T10:10:59.002Z,50.46
2023-01-01T10:12:03.521Z,50.40
2023-01-01T10:13:08.720Z,50.52
2023-01-01T10:14:18.853Z,50.49
2023-01-01T10:15:22.613Z,50.07
2023-01-01T10:16:37.485Z,50.24
2023-01-01T10:17:43.621Z,49.43
2023-01-01T10:18:45.556Z,49.21
2023-01-01T10:19:50.874Z,50.02
2023-01-01T10:21:18.605Z,51.11
2023-01-01T10:22:24.566Z,49.77
2023-01-01T10:23:27.268Z,48.83
2023-01-01T10:24:34.585Z,48.64
2023-01-01T10:25:36.121Z,48.63
2023-01-01T10:26:37.591Z,48.88
2023-01-01T10:27:39.772Z,49.23
2023-01-01T10:28:44.159Z,48.13
2023-01-01T10:29:46.613Z,48.48
2023-01-01T10:30:48.106Z,48.80
2023-01-01T10:31:49.677Z,48.34
2023-01-01T10:32:52.199Z,48.36
2023-01-01T10:33:53.731Z,47.62
2023-01-01T10:34:55.206Z,47.89
2023-01-01T10:35:56.901Z,48.13
2023-01-01T10:36:59.012Z,48.37
2023-01-01T10:38:00.919Z,47.26
2023-01-01T10:39:02.411Z,47.04
2023-01-01T10:40:05.738Z,47.11
2023-01-01T10:41:08.003Z,48.38
2023-01-01T10:42:14.361Z,47.58
2023-01-01T10:43:15.858Z,46.86
2023-01-01T10:44:18.217Z,46.75
2023-01-01T10:45:28.701Z,46.60
2023-01-01T10:46:32.346Z,46.23
2023-01-01T10:47:34.102Z,46.93
2023-01-01T10:48:36.107Z,47.07
2023-01-01T10:49:48.040Z,47.00
2023-01-01T10:50:52.351Z,47.11
2023-01-01T10:51:53.950Z,46.82
2023-01-01T10:52:58.156Z,46.31
2023-01-01T10:53:59.711Z,45.74
2023-01-01T10:55:01.336Z,45.70
2023-01-01T10:56:02.820Z,45.41
2023-01-01T10:57:33.685Z,45.67
2023-01-01T10:58:56.611Z,45.66
2023-01-01T11:00:16.889Z,44.79
2023-01-01T11:01:18.498Z,44.82
2023-01-01T11:02:20.257Z,45.55
2023-01-01T11:03:22.127Z,45.94
2023-01-01T11:04:23.658Z,46.35
2023-01-01T11:05:25.224Z,46.39
2023-01-01T11:06:26.710Z,46.44
2023-01-01T11:07:29.298Z,46.46
2023-01-01T11:08:31.289Z,46.55
2023-01-01T11:09:32.820Z,46.25
2023-01-01T11:10:34.668Z,46.54
2023-01-01T11:11:45.091Z,46.53
2023-01-01T11:13:04.704Z,46.77
2023-01-01T11:14:14.276Z,46.54
2023-01-01T11:15:22.723Z,47.03
2023-01-01T11:16:24.291Z,47.42
2023-01-01T11:17:26.548Z,47.54
2023-01-01T11:18:35.402Z,47.97
2023-01-01T11:19:37.606Z,48.24
2023-01-01T11:20:39.079Z,48.16
2023-01-01T11:21:45.953Z,48.34
2023-01-01T11:22:50.349Z,48.46
2023-01-01T11:24:07.148Z,48.47
2023-01-01T11:25:17.023Z,48.37
2023-01-01T11:26:18.497Z,48.42
2023-01-01T11:27:23.676Z,48.67
2023-01-01T11:28:26.102Z,48.61
2023-01-01T11:29:28.445Z,48.37
2023-01-01T11:30:29.949Z,48.39
2023-01-01T11:31:35.492Z,48.54
2023-01-01T11:32:37.038Z,48.92
2023-01-01T11:33:43.163Z,48.96
2023-01-01T11:34:44.726Z,48.83
2023-01-01T11:35:48.635Z,48.93
2023-01-01T11:36:50.115Z,49.01
2023-01-01T11:37:52.053Z,48.82
2023-01-01T11:39:05.424Z,48.43
2023-01-01T11:40:07.391Z,48.67
2023-01-01T11:41:08.903Z,49.03
2023-01-01T11:42:10.446Z,49.00
2023-01-01T11:43:14.389Z,48.90
2023-01-01T11:44:26.369Z,49.16
2023-01-01T11:45:32.914Z,49.28
2023-01-01T11:46:37.623Z,49.05
2023-01-01T11:47:39.360Z,49.28
2023-01-01T11:48:43.628Z,49.40
2023-01-01T11:49:45.127Z,49.30
2023-01-01T11:50:53.845Z,49.50
2023-01-01T11:51:56.239Z,49.64
2023-01-01T11:53:01.376Z,49.70
2023-01-01T11:54:21.810Z,49.79
2023-01-01T11:55:42.217Z,49.71
2023-01-01T11:56:43.736Z,50.03
2023-01-01T11:57:53.905Z,50.18
2023-01-01T11:58:56.468Z,50.20
2023-01-01T12:00:01.150Z,50.32
2023-01-01T12:01:04.100Z,50.57
2023-01-01T12:02:07.009Z,50.71
2023-01-01T12:03:12.982Z,50.88
2023-01-01T12:04:17.289Z,50.92
2023-01-01T12:05:25.712Z,51.08
2023-01-01T12:06:29.351Z,51.34
2023-01-01T12:07:31.253Z,51.36
2023-01-01T12:08:51.018Z,51.48
2023-01-01T12:10:13.170Z,51.37
2023-01-01T12:11:20.524Z,51.46
2023-01-01T12:12:25.099Z,51.69
2023-01-01T12:13:28.101Z,51.66
2023-01-01T12:14:55.874Z,51.76
2023-01-01T12:16:07.868Z,51.25
2023-01-01T12:17:20.106Z,51.32
2023-01-01T12:18:23.849Z,51.49
2023-01-01T12:19:26.764Z,51.84
2023-01-01T12:20:35.208Z,51.47
2023-01-01T12:21:36.693Z,52.09
2023-01-01T12:22:38.245Z,51.87
2023-01-01T12:23:39.726Z,52.07
2023-01-01T12:24:41.263Z,52.13
2023-01-01T12:25:43.953Z,52.37
2023-01-01T12:26:52.796Z,52.25
2023-01-01T12:27:56.964Z,52.39
2023-01-01T12:29:10.681Z,52.08
2023-01-01T12:30:21.189Z,52.15
2023-01-01T12:31:25.962Z,52.21
2023-01-01T12:32:27.580Z,52.46
2023-01-01T12:33:41.302Z,52.63
2023-01-01T12:34:52.192Z,52.54
2023-01-01T12:36:00.408Z,52.48
2023-01-01T12:37:01.902Z,52.52
2023-01-01T12:38:22.148Z,52.34
2023-01-01T12:39:55.881Z,52.23
2023-01-01T12:41:00.304Z,52.56
2023-01-01T12:42:07.702Z,52.67
2023-01-01T12:43:12.696Z,53.24
2023-01-01T12:44:32.712Z,53.26
2023-01-01T12:45:34.337Z,52.96
2023-01-01T12:46:44.904Z,52.88
2023-01-01T12:47:46.475Z,52.91
2023-01-01T12:49:06.807Z,52.96
2023-01-01T12:50:08.320Z,53.10
2023-01-01T12:51:12.900Z,53.17
2023-01-01T12:52:17.969Z,53.47
2023-01-01T12:53:19.412Z,53.75
2023-01-01T12:54:41.531Z,54.24
2023-01-01T12:55:46.485Z,54.52
2023-01-01T12:56:47.985Z,55.38
2023-01-01T12:57:51.643Z,55.80
2023-01-01T12:58:58.902Z,56.46
2023-01-01T13:00:01.084Z,56.67
2023-01-01T13:01:11.578Z,56.39
2023-01-01T13:02:18.421Z,56.89
2023-01-01T13:03:21.640Z,57.23
2023-01-01T13:04:23.232Z,57.62
2023-01-01T13:05:26.357Z,57.65
2023-01-01T13:06:28.684Z,57.34
2023-01-01T13:07:39.956Z,57.45
2023-01-01T13:08:41.447Z,57.75
2023-01-01T13:09:45.187Z,57.84
2023-01-01T13:10:47.541Z,57.77
2023-01-01T13:11:59.084Z,57.82
2023-01-01T13:13:00.598Z,57.74
2023-01-01T13:14:02.108Z,57.72
2023-01-01T13:15:23.675Z,57.79
2023-01-01T13:16:37.857Z,57.88
2023-01-01T13:17:39.371Z,57.75
2023-01-01T13:18:40.846Z,57.86
2023-01-01T13:19:42.311Z,57.65
2023-01-01T13:20:56.500Z,58.01
2023-01-01T13:21:57.955Z,57.91
2023-01-01T13:22:59.445Z,57.79
2023-01-01T13:24:02.998Z,57.81
2023-01-01T13:25:05.562Z,57.81
2023-01-01T13:26:20.112Z,57.79
2023-01-01T13:27:41.986Z,57.65
2023-01-01T13:29:09.653Z,57.59
2023-01-01T13:30:29.658Z,57.52
2023-01-01T13:31:40.340Z,57.76
2023-01-01T13:33:00.825Z,58.00
2023-01-01T13:34:21.007Z,57.67
2023-01-01T13:35:22.541Z,57.84
2023-01-01T13:36:24.363Z,57.73
2023-01-01T13:37:26.394Z,57.78
2023-01-01T13:38:46.529Z,57.97
2023-01-01T13:39:51.028Z,58.11
2023-01-01T13:40:53.252Z,57.75
2023-01-01T13:41:54.932Z,58.13
2023-01-01T13:42:59.350Z,58.22
2023-01-01T13:44:03.883Z,58.09
2023-01-01T13:46:01.150Z,58.51
2023-01-01T13:47:07.596Z,58.75
2023-01-01T13:48:14.869Z,58.51
2023-01-01T13:49:19.231Z,58.64
2023-01-01T13:50:22.330Z,58.87
2023-01-01T13:52:03.530Z,58.90